createdAt,value
2022-08-22T00:00:20.962Z,20.56
2022-08-22T00:02:47.882Z,25.13
2022-08-22T00:03:00.231Z,24.71
2022-08-22T00:03:01.342Z,24.39
2022-08-22T00:03:22.576Z,20.46
2022-08-22T00:06:07.531Z,20.43
2022-08-22T00:08:47.869Z,20.37
2022-08-22T00:11:25.739Z,20.33
2022-08-22T00:14:02.153Z,20.32
2022-08-22T00:16:35.965Z,20.28
2022-08-22T00:19:13.141Z,20.22
2022-08-22T00:21:46.558Z,20.14
2022-08-22T00:24:25.574Z,20.15
2022-08-22T00:27:00.588Z,20.15
2022-08-22T00:29:34.326Z,20.10
2022-08-22T00:32:11.197Z,20.06
2022-08-22T00:34:44.495Z,20.03
2022-08-22T00:37:20.944Z,20.01
2022-08-22T00:39:59.460Z,19.98
2022-08-22T00:42:54.260Z,19.93
2022-08-22T00:45:38.499Z,19.94
2022-08-22T00:48:24.654Z,19.88
2022-08-22T00:51:09.241Z,19.84
2022-08-22T00:53:51.744Z,19.81
2022-08-22T00:56:55.327Z,19.78
2022-08-22T00:59:41.152Z,19.77
2022-08-22T01:02:23.791Z,19.73
2022-08-22T01:05:10.753Z,19.68
2022-08-22T01:07:58.098Z,19.65
2022-08-22T01:10:45.925Z,19.62
2022-08-22T01:13:32.312Z,19.60
2022-08-22T01:16:18.350Z,19.55
2022-08-22T01:19:05.894Z,19.51
2022-08-22T01:22:09.856Z,19.48
2022-08-22T01:25:22.459Z,19.48
2022-08-22T01:28:44.870Z,19.46
2022-08-22T01:32:01.478Z,19.42
2022-08-22T01:35:04.402Z,19.36
2022-08-22T01:37:55.910Z,19.32
2022-08-22T01:41:18.585Z,19.26
2022-08-22T01:44:03.163Z,19.24
2022-08-22T01:46:37.746Z,19.19
2022-08-22T01:49:14.315Z,19.17
2022-08-22T01:51:51.122Z,19.14
2022-08-22T01:54:31.885Z,19.14
2022-08-22T01:57:03.009Z,19.12
2022-08-22T01:59:34.686Z,19.10
2022-08-22T02:02:40.926Z,19.07
2022-08-22T02:05:20.140Z,19.11
2022-08-22T02:07:58.384Z,19.08
2022-08-22T02:10:44.509Z,19.10
2022-08-22T02:13:30.733Z,19.13
2022-08-22T02:16:09.362Z,19.12
2022-08-22T02:18:54.659Z,19.10
2022-08-22T02:21:30.380Z,19.08
2022-08-22T02:24:03.980Z,19.04
2022-08-22T02:26:44.764Z,19.00
2022-08-22T02:29:17.145Z,19.00
2022-08-22T02:31:54.417Z,18.94
2022-08-22T02:34:34.006Z,18.92
2022-08-22T02:37:09.395Z,18.91
2022-08-22T02:39:45.265Z,18.86
2022-08-22T02:42:22.347Z,18.87
2022-08-22T02:44:58.897Z,18.85
2022-08-22T02:47:34.035Z,18.83
2022-08-22T02:50:12.964Z,18.84
2022-08-22T02:52:57.311Z,18.85
2022-08-22T02:55:37.238Z,18.87
2022-08-22T02:58:12.189Z,18.86
2022-08-22T03:00:47.332Z,18.84
2022-08-22T03:03:20.229Z,18.82
2022-08-22T03:05:53.086Z,18.77
2022-08-22T03:08:25.457Z,18.74
2022-08-22T03:11:13.612Z,18.66
2022-08-22T03:13:54.160Z,18.62
2022-08-22T03:16:30.442Z,18.53
2022-08-22T03:19:04.470Z,18.53
2022-08-22T03:21:38.063Z,18.52
2022-08-22T03:24:12.876Z,18.50
2022-08-22T03:26:50.372Z,18.51
2022-08-22T03:29:23.386Z,18.53
2022-08-22T03:32:12.458Z,18.53
2022-08-22T03:34:56.108Z,18.58
2022-08-22T03:37:33.124Z,18.58
2022-08-22T03:40:07.837Z,18.56
2022-08-22T03:43:02.840Z,18.56
2022-08-22T03:45:58.232Z,18.56
2022-08-22T03:48:57.038Z,18.53
2022-08-22T03:51:40.378Z,18.51
2022-08-22T03:54:31.746Z,18.46
2022-08-22T03:57:40.698Z,18.46
2022-08-22T04:00:21.187Z,18.47
2022-08-22T04:03:07.309Z,18.43
2022-08-22T04:05:58.145Z,18.41
2022-08-22T04:09:03.847Z,18.37
2022-08-22T04:11:52.900Z,18.36
2022-08-22T04:14:48.572Z,18.34
2022-08-22T04:17:35.711Z,18.33
2022-08-22T04:20:20.892Z,18.31
2022-08-22T04:23:16.620Z,18.26
2022-08-22T04:25:52.467Z,18.26
2022-08-22T04:28:24.529Z,18.21
2022-08-22T04:30:57.316Z,18.20
2022-08-22T04:33:31.526Z,18.18
2022-08-22T04:36:06.043Z,18.19
2022-08-22T04:38:39.980Z,18.20
2022-08-22T04:41:13.271Z,18.24
2022-08-22T04:43:49.533Z,18.23
2022-08-22T04:46:26.269Z,18.24
2022-08-22T04:49:11.865Z,18.23
2022-08-22T04:51:45.384Z,18.24
2022-08-22T04:54:33.849Z,18.25
2022-08-22T04:57:22.511Z,18.30
2022-08-22T04:59:51.347Z,18.31
2022-08-22T05:02:24.251Z,18.31
2022-08-22T05:05:00.286Z,18.32
2022-08-22T05:07:36.011Z,18.36
2022-08-22T05:10:11.625Z,18.41
2022-08-22T05:12:44.336Z,18.43
2022-08-22T05:15:19.163Z,18.48
2022-08-22T05:17:54.253Z,18.52
2022-08-22T05:20:28.596Z,18.57
2022-08-22T05:23:01.125Z,18.64
2022-08-22T05:25:33.598Z,18.71
2022-08-22T05:28:12.037Z,18.80
2022-08-22T05:30:41.236Z,18.90
2022-08-22T05:33:17.827Z,18.98
2022-08-22T05:35:55.852Z,19.10
2022-08-22T05:38:31.463Z,19.21
2022-08-22T05:41:06.382Z,19.33
2022-08-22T05:43:38.907Z,19.42
2022-08-22T05:46:10.549Z,19.56
2022-08-22T05:48:44.526Z,19.68
2022-08-22T05:51:22.042Z,19.79
2022-08-22T05:53:55.033Z,19.94
2022-08-22T05:56:36.002Z,20.06
2022-08-22T05:59:09.418Z,20.21
2022-08-22T06:01:47.270Z,20.35
2022-08-22T06:04:25.508Z,20.49
2022-08-22T06:06:58.139Z,20.65
2022-08-22T06:09:35.384Z,20.78
2022-08-22T06:12:18.245Z,20.92
2022-08-22T06:15:01.222Z,21.05
2022-08-22T06:17:35.675Z,21.21
2022-08-22T06:20:08.527Z,21.35
2022-08-22T06:22:42.296Z,21.50
2022-08-22T06:25:14.715Z,21.65
2022-08-22T06:30:17.950Z,21.97
2022-08-22T06:32:59.920Z,22.11
2022-08-22T06:35:53.679Z,22.30
2022-08-22T06:38:28.476Z,22.52
2022-08-22T06:41:00.551Z,22.73
2022-08-22T06:43:34.151Z,22.91
2022-08-22T06:46:02.690Z,23.12
2022-08-22T06:48:30.961Z,23.31
2022-08-22T06:51:00.216Z,23.45
2022-08-22T06:53:35.943Z,23.57
2022-08-22T06:56:06.346Z,23.67
2022-08-22T06:58:42.554Z,23.80
2022-08-22T07:01:14.865Z,23.95
2022-08-22T07:03:47.923Z,24.06
2022-08-22T07:06:19.184Z,24.16
2022-08-22T07:08:55.002Z,24.24
2022-08-22T07:11:27.562Z,24.36
2022-08-22T07:13:59.272Z,24.52
2022-08-22T07:16:33.754Z,24.64
2022-08-22T07:19:02.882Z,24.78
2022-08-22T07:21:42.721Z,24.86
2022-08-22T07:24:18.711Z,24.94
2022-08-22T07:27:04.802Z,25.02
2022-08-22T07:29:42.927Z,25.13
2022-08-22T07:32:16.180Z,25.28
2022-08-22T07:34:58.790Z,25.44
2022-08-22T07:37:37.504Z,25.59
2022-08-22T07:40:19.966Z,25.64
2022-08-22T07:42:52.604Z,25.72
2022-08-22T07:45:31.972Z,25.86
2022-08-22T07:48:19.785Z,25.95
2022-08-22T07:51:02.110Z,26.13
2022-08-22T07:53:37.216Z,26.22
2022-08-22T07:56:10.630Z,26.38
2022-08-22T07:58:41.962Z,26.56
2022-08-22T08:01:12.327Z,26.73
2022-08-22T08:03:41.298Z,26.87
2022-08-22T08:06:10.311Z,26.99
2022-08-22T08:08:42.186Z,27.08
2022-08-22T08:11:16.002Z,27.15
2022-08-22T08:13:47.773Z,27.12
2022-08-22T08:16:21.221Z,27.01
2022-08-22T08:18:52.576Z,26.94
2022-08-22T08:21:29.134Z,26.99
2022-08-22T08:23:57.719Z,27.05
2022-08-22T08:26:32.990Z,27.14
2022-08-22T08:29:01.366Z,27.27
2022-08-22T08:31:34.119Z,27.44
2022-08-22T08:34:06.293Z,27.59
2022-08-22T08:36:41.545Z,27.66
2022-08-22T08:39:19.854Z,27.80
2022-08-22T08:42:15.078Z,28.00
2022-08-22T08:45:07.380Z,28.22
2022-08-22T08:47:56.636Z,28.41
2022-08-22T08:50:51.361Z,28.54
2022-08-22T08:53:45.281Z,28.68
2022-08-22T08:56:20.083Z,28.86
2022-08-22T08:59:00.198Z,29.00
2022-08-22T09:01:53.317Z,29.12
2022-08-22T09:05:05.584Z,29.23
2022-08-22T09:07:50.815Z,29.31
2022-08-22T09:10:33.996Z,29.47
2022-08-22T09:13:29.015Z,29.67
2022-08-22T09:16:25.944Z,29.89
2022-08-22T09:19:12.932Z,30.07
2022-08-22T09:22:06.195Z,30.24
2022-08-22T09:25:06.073Z,30.40
2022-08-22T09:27:38.247Z,30.32
2022-08-22T09:30:11.936Z,30.37
2022-08-22T09:32:52.151Z,30.52
2022-08-22T09:35:27.882Z,30.50
2022-08-22T09:38:22.152Z,30.71
2022-08-22T09:40:57.728Z,30.99
2022-08-22T09:43:37.612Z,31.17
2022-08-22T09:46:15.647Z,31.30
2022-08-22T09:48:58.270Z,31.40
2022-08-22T09:51:37.433Z,31.60
2022-08-22T09:54:22.884Z,31.72
2022-08-22T09:56:59.322Z,31.82
2022-08-22T09:59:43.554Z,31.96
2022-08-22T10:02:24.119Z,32.02
2022-08-22T10:05:04.121Z,32.16
2022-08-22T10:07:59.491Z,32.23
2022-08-22T10:10:54.740Z,32.08
2022-08-22T10:13:34.218Z,32.30
2022-08-22T10:16:16.621Z,32.39
2022-08-22T10:18:54.723Z,32.45
2022-08-22T10:21:36.317Z,32.44
2022-08-22T10:24:25.492Z,32.60
2022-08-22T10:26:57.402Z,32.67
2022-08-22T10:29:40.657Z,32.69
2022-08-22T10:32:27.145Z,32.69
2022-08-22T10:35:02.802Z,32.78
2022-08-22T10:37:40.592Z,32.99
2022-08-22T10:40:22.956Z,33.22
2022-08-22T10:42:57.604Z,33.30
2022-08-22T10:45:36.034Z,33.46
2022-08-22T10:48:25.640Z,33.53
2022-08-22T10:51:02.602Z,33.46
2022-08-22T10:53:42.836Z,33.45
2022-08-22T10:56:14.985Z,33.37
2022-08-22T10:58:51.294Z,33.42
2022-08-22T11:01:37.886Z,33.47
2022-08-22T11:04:19.709Z,33.58
2022-08-22T11:07:15.471Z,33.54
2022-08-22T11:09:45.137Z,33.46
2022-08-22T11:12:23.294Z,33.54
2022-08-22T11:15:08.484Z,33.52
2022-08-22T11:18:24.123Z,33.45
2022-08-22T11:21:01.727Z,33.50
2022-08-22T11:23:41.953Z,33.61
2022-08-22T11:26:41.379Z,33.72
2022-08-22T11:29:32.882Z,33.74
2022-08-22T11:32:09.022Z,33.72
2022-08-22T11:34:47.951Z,33.76
2022-08-22T11:37:42.783Z,33.91
2022-08-22T11:40:25.909Z,34.03
2022-08-22T11:43:03.151Z,34.11
2022-08-22T11:45:40.055Z,34.13
2022-08-22T11:48:18.206Z,34.17
2022-08-22T11:50:51.222Z,34.22
2022-08-22T11:53:25.427Z,34.03
2022-08-22T11:56:10.349Z,34.02
2022-08-22T11:58:54.758Z,33.93
2022-08-22T12:01:34.371Z,33.95
2022-08-22T12:04:10.255Z,34.07
2022-08-22T12:06:59.084Z,34.27
2022-08-22T12:09:35.893Z,34.35
2022-08-22T12:12:19.899Z,34.36
2022-08-22T12:14:58.790Z,34.12
2022-08-22T12:17:55.960Z,34.06
2022-08-22T12:20:48.894Z,33.87
2022-08-22T12:23:49.699Z,33.74
2022-08-22T12:26:30.504Z,33.80
2022-08-22T12:29:16.795Z,33.71
2022-08-22T12:32:17.410Z,33.43
2022-08-22T12:35:14.038Z,33.42
2022-08-22T12:37:53.063Z,33.56
2022-08-22T12:40:39.756Z,33.47
2022-08-22T12:43:49.536Z,33.62
2022-08-22T12:46:28.900Z,33.87
2022-08-22T12:49:24.028Z,34.06
2022-08-22T12:52:14.407Z,34.35
2022-08-22T12:54:53.837Z,34.41
2022-08-22T12:57:32.978Z,34.33
2022-08-22T13:00:09.452Z,34.09
2022-08-22T13:02:41.687Z,34.04
2022-08-22T13:05:19.533Z,33.73
2022-08-22T13:07:54.525Z,33.64
2022-08-22T13:10:40.337Z,33.52
2022-08-22T13:13:12.790Z,33.51
2022-08-22T13:15:47.217Z,33.67
2022-08-22T13:18:29.722Z,33.73
2022-08-22T13:21:05.061Z,33.67
2022-08-22T13:23:40.024Z,33.64
2022-08-22T13:26:16.454Z,33.71
2022-08-22T13:29:24.742Z,33.57
2022-08-22T13:31:56.240Z,33.62
2022-08-22T13:34:39.440Z,33.59
2022-08-22T13:37:16.223Z,33.38
2022-08-22T13:39:49.120Z,33.43
2022-08-22T13:42:29.806Z,33.53
2022-08-22T13:45:04.588Z,33.63
2022-08-22T13:47:39.445Z,33.49
2022-08-22T13:50:13.897Z,33.34
2022-08-22T13:52:52.251Z,33.32
2022-08-22T13:55:29.553Z,33.32
2022-08-22T13:58:07.478Z,33.24
2022-08-22T14:01:03.752Z,33.17
2022-08-22T14:03:40.377Z,33.21
2022-08-22T14:06:36.814Z,33.29
2022-08-22T14:09:32.065Z,33.41
2022-08-22T14:12:13.615Z,33.36
2022-08-22T14:14:46.358Z,33.48
2022-08-22T14:17:21.065Z,33.79
2022-08-22T14:19:59.453Z,33.89
2022-08-22T14:22:35.391Z,33.94
2022-08-22T14:25:10.279Z,33.87
2022-08-22T14:27:57.765Z,33.87
2022-08-22T14:30:30.162Z,34.15
2022-08-22T14:33:12.662Z,34.35
2022-08-22T14:35:45.279Z,34.58
2022-08-22T14:38:30.463Z,34.69
2022-08-22T14:41:05.272Z,34.59
2022-08-22T14:43:49.592Z,34.58
2022-08-22T14:46:26.732Z,34.42
2022-08-22T14:49:16.083Z,34.36
2022-08-22T14:51:50.909Z,34.29
2022-08-22T14:54:22.333Z,34.32
2022-08-22T14:56:54.962Z,34.35
2022-08-22T14:59:38.442Z,34.27
2022-08-22T15:02:10.894Z,34.18
2022-08-22T15:04:42.659Z,34.01
2022-08-22T15:07:21.090Z,33.87
2022-08-22T15:09:53.901Z,33.83
2022-08-22T15:12:30.640Z,33.74
2022-08-22T15:15:01.814Z,33.60
2022-08-22T15:17:44.104Z,33.50
2022-08-22T15:20:27.683Z,33.62
2022-08-22T15:22:59.540Z,33.73
2022-08-22T15:25:31.652Z,33.80
2022-08-22T15:28:07.803Z,33.83
2022-08-22T15:30:45.201Z,33.93
2022-08-22T15:33:19.080Z,34.23
2022-08-22T15:35:48.930Z,34.47
2022-08-22T15:38:30.334Z,34.41
2022-08-22T15:41:31.090Z,34.28
2022-08-22T15:44:15.054Z,34.07
2022-08-22T15:47:02.553Z,34.17
2022-08-22T15:49:35.890Z,33.84
2022-08-22T15:52:14.835Z,33.52
2022-08-22T15:55:19.004Z,33.22
2022-08-22T15:57:59.701Z,32.94
2022-08-22T16:00:36.384Z,32.67
2022-08-22T16:03:24.288Z,32.36
2022-08-22T16:05:56.026Z,32.12
2022-08-22T16:08:29.625Z,31.83
2022-08-22T16:11:27.477Z,31.64
2022-08-22T16:14:21.665Z,31.46
2022-08-22T16:16:58.235Z,31.28
2022-08-22T16:19:27.782Z,31.16
2022-08-22T16:22:16.356Z,31.06
2022-08-22T16:25:14.251Z,30.90
2022-08-22T16:27:55.197Z,30.74
2022-08-22T16:30:36.731Z,30.69
2022-08-22T16:33:08.773Z,30.61
2022-08-22T16:36:24.419Z,30.63
2022-08-22T16:38:56.491Z,30.72
2022-08-22T16:41:40.229Z,30.67
2022-08-22T16:44:41.588Z,30.57
2022-08-22T16:47:16.517Z,30.49
2022-08-22T16:50:03.413Z,30.31
2022-08-22T16:53:02.119Z,30.31
2022-08-22T16:56:12.279Z,30.17
2022-08-22T16:59:22.955Z,30.15
2022-08-22T17:02:12.752Z,30.11
2022-08-22T17:04:51.474Z,30.00
2022-08-22T17:07:34.550Z,29.90
2022-08-22T17:10:36.269Z,29.83
2022-08-22T17:13:15.478Z,29.72
2022-08-22T17:15:57.794Z,29.61
2022-08-22T17:18:43.836Z,29.52
2022-08-22T17:21:17.547Z,29.42
2022-08-22T17:23:57.709Z,29.31
2022-08-22T17:26:37.985Z,29.23
2022-08-22T17:29:16.370Z,29.15
2022-08-22T17:31:50.918Z,29.06
2022-08-22T17:34:32.291Z,28.99
2022-08-22T17:37:09.195Z,28.92
2022-08-22T17:40:04.943Z,28.88
2022-08-22T17:42:49.256Z,28.80
2022-08-22T17:45:27.540Z,28.68
2022-08-22T17:48:03.438Z,28.58
2022-08-22T17:50:39.328Z,28.49
2022-08-22T17:53:16.370Z,28.36
2022-08-22T17:56:01.407Z,28.29
2022-08-22T17:58:43.913Z,28.20
2022-08-22T18:01:15.172Z,28.09
2022-08-22T18:03:50.789Z,28.00
2022-08-22T18:06:23.660Z,27.92
2022-08-22T18:11:51.039Z,27.70
2022-08-22T18:14:29.550Z,27.56
2022-08-22T18:17:00.964Z,27.49
2022-08-22T18:19:40.978Z,27.44
2022-08-22T18:22:13.036Z,27.43
2022-08-22T18:24:47.387Z,27.38
2022-08-22T18:27:34.403Z,27.32
2022-08-22T18:30:16.091Z,27.25
2022-08-22T18:32:52.161Z,27.15
2022-08-22T18:35:26.092Z,27.06
2022-08-22T18:38:19.396Z,26.97
2022-08-22T18:40:55.006Z,26.84
2022-08-22T18:43:39.079Z,26.74
2022-08-22T18:46:33.731Z,26.68
2022-08-22T18:49:15.431Z,26.62
2022-08-22T18:51:44.444Z,26.54
2022-08-22T18:54:42.792Z,26.49
2022-08-22T18:57:31.564Z,26.45
2022-08-22T19:00:14.412Z,26.36
2022-08-22T19:03:03.569Z,26.27
2022-08-22T19:05:56.735Z,26.24
2022-08-22T19:08:44.399Z,26.20
2022-08-22T19:11:35.114Z,26.16
2022-08-22T19:14:35.573Z,26.09
2022-08-22T19:17:21.432Z,26.06
2022-08-22T19:20:24.822Z,25.97
2022-08-22T19:22:54.758Z,25.90
2022-08-22T19:25:26.411Z,25.83
2022-08-22T19:28:26.784Z,25.79
2022-08-22T19:31:22.355Z,25.76
2022-08-22T19:34:12.012Z,25.68
2022-08-22T19:36:41.354Z,25.61
2022-08-22T19:39:11.139Z,25.57
2022-08-22T19:41:52.834Z,25.52
2022-08-22T19:44:37.567Z,25.47
2022-08-22T19:47:26.839Z,25.44
2022-08-22T19:50:05.583Z,25.32
2022-08-22T19:52:45.862Z,25.25
2022-08-22T19:55:22.941Z,25.20
2022-08-22T19:58:03.958Z,25.12
2022-08-22T20:00:53.503Z,25.03
2022-08-22T20:03:42.016Z,24.98
2022-08-22T20:06:42.631Z,24.93
2022-08-22T20:09:21.632Z,24.86
2022-08-22T20:12:00.580Z,24.81
2022-08-22T20:14:31.455Z,24.74
2022-08-22T20:17:05.218Z,24.72
2022-08-22T20:19:40.039Z,24.71
2022-08-22T20:22:15.884Z,24.71
2022-08-22T20:24:49.070Z,24.68
2022-08-22T20:27:21.978Z,24.65
2022-08-22T20:29:55.426Z,24.63
2022-08-22T20:32:26.311Z,24.61
2022-08-22T20:34:58.955Z,24.58
2022-08-22T20:38:05.720Z,24.58
2022-08-22T20:40:54.982Z,24.54
2022-08-22T20:43:25.113Z,24.51
2022-08-22T20:46:12.408Z,24.44
2022-08-22T20:48:44.003Z,24.45
2022-08-22T20:51:18.025Z,24.42
2022-08-22T20:53:54.679Z,24.36
2022-08-22T20:56:34.338Z,24.31
2022-08-22T20:59:16.635Z,24.28
2022-08-22T21:01:46.052Z,24.19
2022-08-22T21:04:15.755Z,24.07
2022-08-22T21:06:43.643Z,24.06
2022-08-22T21:09:32.976Z,24.04
2022-08-22T21:12:02.732Z,23.99
2022-08-22T21:14:34.595Z,23.91
2022-08-22T21:17:19.147Z,23.86
2022-08-22T21:19:47.529Z,23.79
2022-08-22T21:22:17.198Z,23.69
2022-08-22T21:24:46.607Z,23.63
2022-08-22T21:27:25.988Z,23.58
2022-08-22T21:29:54.225Z,23.53
2022-08-22T21:32:28.271Z,23.45
2022-08-22T21:34:56.730Z,23.40
2022-08-22T21:37:35.743Z,23.33
2022-08-22T21:40:10.567Z,23.24
2022-08-22T21:42:45.997Z,23.14
2022-08-22T21:45:27.444Z,23.08
2022-08-22T21:47:55.792Z,23.06
2022-08-22T21:50:34.698Z,22.99
2022-08-22T21:53:10.101Z,23.00
2022-08-22T21:55:44.381Z,22.93
2022-08-22T21:58:35.106Z,22.90
2022-08-22T22:01:29.957Z,22.96
2022-08-22T22:03:58.912Z,22.97
2022-08-22T22:06:27.959Z,22.91
2022-08-22T22:08:56.001Z,22.90
2022-08-22T22:11:25.536Z,22.90
2022-08-22T22:13:54.339Z,22.89
2022-08-22T22:16:25.651Z,22.87
2022-08-22T22:18:53.905Z,22.85
2022-08-22T22:21:21.941Z,22.84
2022-08-22T22:23:50.625Z,22.85
2022-08-22T22:26:20.937Z,22.84
2022-08-22T22:28:51.123Z,22.80
2022-08-22T22:31:19.524Z,22.77
2022-08-22T22:33:47.444Z,22.76
2022-08-22T22:36:19.101Z,22.72
2022-08-22T22:38:48.222Z,22.69
2022-08-22T22:41:23.292Z,22.62
2022-08-22T22:43:53.311Z,22.58
2022-08-22T22:46:21.749Z,22.50
2022-08-22T22:48:49.914Z,22.41
2022-08-22T22:51:18.045Z,22.35
2022-08-22T22:53:46.796Z,22.30
2022-08-22T22:56:18.142Z,22.24
2022-08-22T22:58:50.648Z,22.21
2022-08-22T23:01:59.683Z,22.18
2022-08-22T23:04:28.222Z,22.16
2022-08-22T23:06:56.210Z,22.11
2022-08-22T23:09:38.013Z,22.08
2022-08-22T23:12:08.318Z,22.06
2022-08-22T23:14:36.794Z,22.03
2022-08-22T23:17:06.242Z,21.99
2022-08-22T23:19:35.551Z,21.92
2022-08-22T23:22:03.549Z,21.87
2022-08-22T23:24:37.152Z,21.78
2022-08-22T23:27:06.906Z,21.72
2022-08-22T23:29:35.395Z,21.67
2022-08-22T23:32:06.206Z,21.59
2022-08-22T23:34:37.578Z,21.54
2022-08-22T23:37:08.229Z,21.50
2022-08-22T23:39:38.150Z,21.45
2022-08-22T23:42:07.666Z,21.40
2022-08-22T23:44:37.581Z,21.32
2022-08-22T23:47:09.647Z,21.29
2022-08-22T23:49:39.052Z,21.26
2022-08-22T23:52:09.032Z,21.24
2022-08-22T23:54:37.279Z,21.23
2022-08-22T23:57:11.841Z,21.21
2022-08-22T23:59:47.877Z,21.20
